Maersk Drummond — A8JF3 — position and weather

sailwx.info

Track history (hours):
 
Tides and Currents Weather Stations Pressure Air Temp Water Temp Dewpoint Dewpoint Depression Visibility Wind Speed Wind Dir Waves Ship Positions

Maersk Drummond

Last reported at 2017-Oct-31 04:24 UTC. Time now 2017-Nov-24 02:15 UTC.
Position N 27°29' W 015°16'.
Warning: this ship's position is 23 days out of date.

Length 294 m; draft 8.7 m.

Type: Ship (hazmat cat A). MMSI: 636091082.

Date/timePositionNaut miles runAvg speedWind from/ knotsBaromVisibWave heightAir tempDewpointWater temp
2017-Oct-31 04:24N 27°29' W 015°16'1212.0
2017-Oct-31 03:26N 27°40' W 015°12'512.2
2017-Oct-31 03:00N 27°45' W 015°09'612.0
2017-Oct-31 02:30N 27°51' W 015°07'611.7
2017-Oct-31 02:00N 27°56' W 015°05'611.2
2017-Oct-31 01:30N 28°01' W 015°03'611.3
2017-Oct-31 01:00N 28°07' W 015°01'611.2
2017-Oct-31 00:30N 28°12' W 014°59'611.2
2017-Oct-31 00:00N 28°17' W 014°56'611.1
2017-Oct-30 23:30N 28°23' W 014°54'511.0
2017-Oct-30 23:00N 28°28' W 014°52'511.0
2017-Oct-30 22:30N 28°33' W 014°50'611.0
2017-Oct-30 21:59N 28°37' W 014°46'511.2
2017-Oct-30 21:30N 28°41' W 014°42'611.2
2017-Oct-30 21:00N 28°45' W 014°37'611.2
2017-Oct-30 20:30N 28°49' W 014°33'611.3
2017-Oct-30 20:00N 28°53' W 014°28'611.3
2017-Oct-30 19:30N 28°57' W 014°23'611.4
2017-Oct-30 19:00N 29°01' W 014°19'611.5
2017-Oct-30 18:30N 29°05' W 014°14'611.5
2017-Oct-30 18:00N 29°09' W 014°10'611.5
2017-Oct-30 17:30N 29°14' W 014°05'611.6
2017-Oct-30 17:00N 29°18' W 014°01'611.6
2017-Oct-30 16:30N 29°22' W 013°56'611.6
2017-Oct-30 16:00N 29°26' W 013°51'611.9
2017-Oct-30 15:30N 29°30' W 013°46'611.8
2017-Oct-30 15:00N 29°34' W 013°42'1211.9
2017-Oct-30 14:00N 29°43' W 013°32'611.8
2017-Oct-30 13:30N 29°47' W 013°27'2011.9
2017-Oct-30 11:50N 30°01' W 013°11'411.6
2017-Oct-30 11:29N 30°04' W 013°08'611.4
2017-Oct-30 10:57N 30°09' W 013°03'611.3
2017-Oct-30 10:27N 30°13' W 012°59'511.3
2017-Oct-30 09:59N 30°16' W 012°54'611.4
2017-Oct-30 09:30N 30°20' W 012°50'911.5
2017-Oct-30 08:42N 30°27' W 012°42'211.6
2017-Oct-30 08:30N 30°28' W 012°41'611.6
2017-Oct-30 08:00N 30°33' W 012°36'611.3
2017-Oct-30 07:30N 30°37' W 012°31'9111.2
2017-Oct-29 23:23N 31°42' W 011°17'711.7
2017-Oct-29 22:48N 31°47' W 011°11'411.6
2017-Oct-29 22:30N 31°49' W 011°08'811.6
2017-Oct-29 21:47N 31°55' W 011°01'311.4
2017-Oct-29 21:30N 31°57' W 010°59'5211.2
2017-Oct-29 16:53N 32°34' W 010°16'411.1
2017-Oct-29 16:30N 32°37' W 010°12'2511.2
2017-Oct-29 14:16N 32°55' W 009°52'311.4
2017-Oct-29 14:00N 32°57' W 009°49'611.2
2017-Oct-29 13:30N 33°01' W 009°45'611.3
2017-Oct-29 13:00N 33°05' W 009°40'711.3
2017-Oct-29 12:24N 33°10' W 009°34'1811.3
2017-Oct-29 10:48N 33°23' W 009°19'311.0
2017-Oct-29 10:30N 33°26' W 009°16'611.0
2017-Oct-29 09:58N 33°30' W 009°11'4013.8
2017-Oct-29 07:02N 33°59' W 008°38'111.4
2017-Oct-29 07:00N 33°59' W 008°37'911.3
2017-Oct-29 06:14N 34°05' W 008°30'411.1
2017-Oct-29 05:50N 34°08' W 008°26'411.1
2017-Oct-29 05:30N 34°11' W 008°23'1911.0
2017-Oct-29 03:46N 34°25' W 008°07'11611.3
2017-Oct-28 17:30N 35°47' W 006°28'56 1.6
2017-Oct-27 07:24N 36°05' W 005°22'4 0.2
2017-Oct-26 09:54N 36°04' W 005°17'0 0.7
2017-Oct-26 09:30N 36°04' W 005°17'1 1.3
2017-Oct-26 09:00N 36°03' W 005°17'0 0.7
2017-Oct-26 08:27N 36°03' W 005°17'0 0.6
2017-Oct-26 08:00N 36°03' W 005°16'0 0.1
2017-Oct-26 07:16N 36°03' W 005°16'0 0.3
2017-Oct-26 06:52N 36°03' W 005°17'1 1.7
2017-Oct-26 06:14N 36°03' W 005°18'3 3.2
2017-Oct-26 05:17N 36°06' W 005°20'2 5.6
2017-Oct-26 05:00N 36°05' W 005°19'  
2017-Oct-23 21:20N 37°13' W 001°04'514.5
2017-Oct-23 20:59N 37°17' W 000°59'814.6
2017-Oct-23 20:26N 37°22' W 000°51'614.6
2017-Oct-23 20:00N 37°26' W 000°46'914.7
2017-Oct-23 19:25N 37°32' W 000°38'614.8
2017-Oct-23 19:00N 37°36' W 000°32'814.6
2017-Oct-23 18:29N 37°43' W 000°27'814.4
2017-Oct-23 17:55N 37°50' W 000°21'152 3.8
2017-Oct-22 01:38N 39°03' E 002°29'210.3
2017-Oct-22 01:27N 39°02' E 002°31'510.5
2017-Oct-22 01:00N 38°60' E 002°36'  
Track history (hours):
 
Tides and Currents Weather Stations Pressure Air Temp Water Temp Dewpoint Dewpoint Depression Visibility Wind Speed Wind Dir Waves Ship Positions

Maersk Drummond

Last reported at 2017-Oct-31 04:24 UTC. Time now 2017-Nov-24 02:15 UTC.
Position N 27°29' W 015°16'.
Warning: this ship's position is 23 days out of date.

Length 294 m; draft 8.7 m.

Type: Ship (hazmat cat A). MMSI: 636091082.

Date/timePositionNaut miles runAvg speedWind from/ knotsBaromVisibWave heightAir tempDewpointWater temp
2017-Oct-31 04:24N 27°29' W 015°16'1212.0
2017-Oct-31 03:26N 27°40' W 015°12'512.2
2017-Oct-31 03:00N 27°45' W 015°09'612.0
2017-Oct-31 02:30N 27°51' W 015°07'611.7
2017-Oct-31 02:00N 27°56' W 015°05'611.2
2017-Oct-31 01:30N 28°01' W 015°03'611.3
2017-Oct-31 01:00N 28°07' W 015°01'611.2
2017-Oct-31 00:30N 28°12' W 014°59'611.2
2017-Oct-31 00:00N 28°17' W 014°56'611.1
2017-Oct-30 23:30N 28°23' W 014°54'511.0
2017-Oct-30 23:00N 28°28' W 014°52'511.0
2017-Oct-30 22:30N 28°33' W 014°50'611.0
2017-Oct-30 21:59N 28°37' W 014°46'511.2
2017-Oct-30 21:30N 28°41' W 014°42'611.2
2017-Oct-30 21:00N 28°45' W 014°37'611.2
2017-Oct-30 20:30N 28°49' W 014°33'611.3
2017-Oct-30 20:00N 28°53' W 014°28'611.3
2017-Oct-30 19:30N 28°57' W 014°23'611.4
2017-Oct-30 19:00N 29°01' W 014°19'611.5
2017-Oct-30 18:30N 29°05' W 014°14'611.5
2017-Oct-30 18:00N 29°09' W 014°10'611.5
2017-Oct-30 17:30N 29°14' W 014°05'611.6
2017-Oct-30 17:00N 29°18' W 014°01'611.6
2017-Oct-30 16:30N 29°22' W 013°56'611.6
2017-Oct-30 16:00N 29°26' W 013°51'611.9
2017-Oct-30 15:30N 29°30' W 013°46'611.8
2017-Oct-30 15:00N 29°34' W 013°42'1211.9
2017-Oct-30 14:00N 29°43' W 013°32'611.8
2017-Oct-30 13:30N 29°47' W 013°27'2011.9
2017-Oct-30 11:50N 30°01' W 013°11'411.6
2017-Oct-30 11:29N 30°04' W 013°08'611.4
2017-Oct-30 10:57N 30°09' W 013°03'611.3
2017-Oct-30 10:27N 30°13' W 012°59'511.3
2017-Oct-30 09:59N 30°16' W 012°54'611.4
2017-Oct-30 09:30N 30°20' W 012°50'911.5
2017-Oct-30 08:42N 30°27' W 012°42'211.6
2017-Oct-30 08:30N 30°28' W 012°41'611.6
2017-Oct-30 08:00N 30°33' W 012°36'611.3
2017-Oct-30 07:30N 30°37' W 012°31'9111.2
2017-Oct-29 23:23N 31°42' W 011°17'711.7
2017-Oct-29 22:48N 31°47' W 011°11'411.6
2017-Oct-29 22:30N 31°49' W 011°08'811.6
2017-Oct-29 21:47N 31°55' W 011°01'311.4
2017-Oct-29 21:30N 31°57' W 010°59'5211.2
2017-Oct-29 16:53N 32°34' W 010°16'411.1
2017-Oct-29 16:30N 32°37' W 010°12'2511.2
2017-Oct-29 14:16N 32°55' W 009°52'311.4
2017-Oct-29 14:00N 32°57' W 009°49'611.2
2017-Oct-29 13:30N 33°01' W 009°45'611.3
2017-Oct-29 13:00N 33°05' W 009°40'711.3
2017-Oct-29 12:24N 33°10' W 009°34'1811.3
2017-Oct-29 10:48N 33°23' W 009°19'311.0
2017-Oct-29 10:30N 33°26' W 009°16'611.0
2017-Oct-29 09:58N 33°30' W 009°11'4013.8
2017-Oct-29 07:02N 33°59' W 008°38'111.4
2017-Oct-29 07:00N 33°59' W 008°37'911.3
2017-Oct-29 06:14N 34°05' W 008°30'411.1
2017-Oct-29 05:50N 34°08' W 008°26'411.1
2017-Oct-29 05:30N 34°11' W 008°23'1911.0
2017-Oct-29 03:46N 34°25' W 008°07'11611.3
2017-Oct-28 17:30N 35°47' W 006°28'56 1.6
2017-Oct-27 07:24N 36°05' W 005°22'4 0.2
2017-Oct-26 09:54N 36°04' W 005°17'0 0.7
2017-Oct-26 09:30N 36°04' W 005°17'1 1.3
2017-Oct-26 09:00N 36°03' W 005°17'0 0.7
2017-Oct-26 08:27N 36°03' W 005°17'0 0.6
2017-Oct-26 08:00N 36°03' W 005°16'0 0.1
2017-Oct-26 07:16N 36°03' W 005°16'0 0.3
2017-Oct-26 06:52N 36°03' W 005°17'1 1.7
2017-Oct-26 06:14N 36°03' W 005°18'3 3.2
2017-Oct-26 05:17N 36°06' W 005°20'2 5.6
2017-Oct-26 05:00N 36°05' W 005°19'  
2017-Oct-23 21:20N 37°13' W 001°04'514.5
2017-Oct-23 20:59N 37°17' W 000°59'814.6
2017-Oct-23 20:26N 37°22' W 000°51'614.6
2017-Oct-23 20:00N 37°26' W 000°46'914.7
2017-Oct-23 19:25N 37°32' W 000°38'614.8
2017-Oct-23 19:00N 37°36' W 000°32'814.6
2017-Oct-23 18:29N 37°43' W 000°27'814.4
2017-Oct-23 17:55N 37°50' W 000°21'152 3.8
2017-Oct-22 01:38N 39°03' E 002°29'210.3
2017-Oct-22 01:27N 39°02' E 002°31'510.5
2017-Oct-22 01:00N 38°60' E 002°36'  

Dump ship's entire track history